Time,TemperatureF,DewpointF,PressureIn,WindDirection,WindDirectionDegrees,WindSpeedMPH,WindSpeedGustMPH,Humidity,HourlyPrecipIn,Conditions,Clouds,dailyrainin,SoftwareType,DateUTC
2013-01-18 00:09:00,32.9,30.8,29.99,North,0,1.6,-999.0,92,-99.99,,,0.00,Acu-Link.com,2013-01-18 05:09:00,
2013-01-18 00:25:00,32.4,29.8,29.97,SW,225,3.8,-999.0,90,-99.99,,,0.00,Acu-Link.com,2013-01-18 05:25:00,
2013-01-18 00:40:00,31.8,30.0,29.97,North,0,0.0,-999.0,93,-99.99,,,0.00,Acu-Link.com,2013-01-18 05:40:00,
2013-01-18 00:55:00,31.1,29.3,29.98,ESE,112,1.1,-999.0,93,-99.99,,,0.00,Acu-Link.com,2013-01-18 05:55:00,
2013-01-18 01:10:00,30.7,27.3,30.01,SSE,157,3.8,-999.0,87,-99.99,,,0.00,Acu-Link.com,2013-01-18 06:10:00,
2013-01-18 01:25:00,30.2,26.0,30.02,East,90,6.7,-999.0,84,-99.99,,,0.00,Acu-Link.com,2013-01-18 06:25:00,
2013-01-18 01:40:00,30.0,26.4,30.04,SSW,202,2.7,-999.0,86,-99.99,,,0.00,Acu-Link.com,2013-01-18 06:40:00,
2013-01-18 01:55:00,29.7,24.6,30.03,NNE,22,1.1,-999.0,81,-99.99,,,0.00,Acu-Link.com,2013-01-18 06:55:00,
2013-01-18 02:10:00,29.3,23.9,30.04,South,180,0.0,-999.0,80,-99.99,,,0.00,Acu-Link.com,2013-01-18 07:10:00,
2013-01-18 02:25:00,29.1,23.7,30.06,East,90,0.0,-999.0,80,-99.99,,,0.00,Acu-Link.com,2013-01-18 07:25:00,
2013-01-18 02:40:00,28.9,22.7,30.05,SSE,157,1.6,-999.0,77,-99.99,,,0.00,Acu-Link.com,2013-01-18 07:40:00,
2013-01-18 02:55:00,28.8,21.9,30.06,SSW,202,2.7,-999.0,75,-99.99,,,0.00,Acu-Link.com,2013-01-18 07:55:00,
2013-01-18 03:10:00,28.6,22.3,30.06,SSW,202,1.6,-999.0,77,-99.99,,,0.00,Acu-Link.com,2013-01-18 08:10:00,
2013-01-18 03:25:00,28.4,20.5,30.06,WSW,247,2.7,-999.0,72,-99.99,,,0.00,Acu-Link.com,2013-01-18 08:25:00,
2013-01-18 03:40:00,28.4,20.2,30.06,SSW,202,2.7,-999.0,71,-99.99,,,0.00,Acu-Link.com,2013-01-18 08:40:00,
2013-01-18 03:56:00,28.2,21.3,30.05,SE,135,0.0,-999.0,75,-99.99,,,0.00,Acu-Link.com,2013-01-18 08:56:00,
2013-01-18 04:11:00,27.7,20.8,30.06,ESE,112,0.0,-999.0,75,-99.99,,,0.00,Acu-Link.com,2013-01-18 09:11:00,
2013-01-18 04:26:00,27.5,20.9,30.07,SW,225,0.0,-999.0,76,-99.99,,,0.00,Acu-Link.com,2013-01-18 09:26:00,
2013-01-18 04:41:00,27.5,21.9,30.09,WNW,292,3.8,-999.0,79,-99.99,,,0.00,Acu-Link.com,2013-01-18 09:41:00,
2013-01-18 04:56:00,27.7,22.3,30.10,SE,135,0.0,-999.0,80,-99.99,,,0.00,Acu-Link.com,2013-01-18 09:56:00,
2013-01-18 05:11:00,27.7,22.6,30.11,East,90,0.0,-999.0,81,-99.99,,,0.00,Acu-Link.com,2013-01-18 10:11:00,
2013-01-18 05:26:00,27.5,21.6,30.12,WNW,292,0.0,-999.0,78,-99.99,,,0.00,Acu-Link.com,2013-01-18 10:26:00,
2013-01-18 05:41:00,27.0,21.3,30.14,SSW,202,1.6,-999.0,79,-99.99,,,0.00,Acu-Link.com,2013-01-18 10:41:00,
2013-01-18 05:56:00,26.6,21.3,30.15,South,180,1.6,-999.0,80,-99.99,,,0.00,Acu-Link.com,2013-01-18 10:56:00,
2013-01-18 06:11:00,26.4,20.5,30.17,SW,225,0.0,-999.0,78,-99.99,,,0.00,Acu-Link.com,2013-01-18 11:11:00,
2013-01-18 06:26:00,25.7,20.1,30.18,SSE,157,0.0,-999.0,79,-99.99,,,0.00,Acu-Link.com,2013-01-18 11:26:00,
2013-01-18 06:41:00,25.5,19.6,30.20,SSW,202,2.7,-999.0,78,-99.99,,,0.00,Acu-Link.com,2013-01-18 11:41:00,
2013-01-18 06:56:00,25.0,19.7,30.21,ESE,112,0.0,-999.0,80,-99.99,,,0.00,Acu-Link.com,2013-01-18 11:56:00,
2013-01-18 07:12:00,24.3,19.9,30.22,SW,225,1.6,-999.0,83,-99.99,,,0.00,Acu-Link.com,2013-01-18 12:12:00,
2013-01-18 07:27:00,24.1,20.2,30.25,SE,135,1.6,-999.0,85,-99.99,,,0.00,Acu-Link.com,2013-01-18 12:27:00,
2013-01-18 07:42:00,24.1,20.2,30.27,SSW,202,4.7,-999.0,85,-99.99,,,0.00,Acu-Link.com,2013-01-18 12:42:00,
2013-01-18 07:57:00,23.9,19.5,30.28,SSW,202,0.0,-999.0,83,-99.99,,,0.00,Acu-Link.com,2013-01-18 12:57:00,
2013-01-18 08:12:00,23.5,19.4,30.29,WNW,292,0.0,-999.0,84,-99.99,,,0.00,Acu-Link.com,2013-01-18 13:12:00,
2013-01-18 08:27:00,23.7,19.0,30.30,ENE,67,0.0,-999.0,82,-99.99,,,0.00,Acu-Link.com,2013-01-18 13:27:00,
2013-01-18 08:42:00,24.1,19.1,30.31,NE,45,1.6,-999.0,81,-99.99,,,0.00,Acu-Link.com,2013-01-18 13:42:00,
2013-01-18 08:57:00,24.3,19.0,30.31,SSE,157,0.0,-999.0,80,-99.99,,,0.00,Acu-Link.com,2013-01-18 13:57:00,
2013-01-18 09:12:00,24.6,19.1,30.33,South,180,5.1,-999.0,79,-99.99,,,0.00,Acu-Link.com,2013-01-18 14:12:00,
2013-01-18 09:27:00,24.8,17.7,30.35,SSE,157,3.8,-999.0,74,-99.99,,,0.00,Acu-Link.com,2013-01-18 14:27:00,
2013-01-18 09:42:00,25.2,17.7,30.36,SSW,202,0.0,-999.0,73,-99.99,,,0.00,Acu-Link.com,2013-01-18 14:42:00,
2013-01-18 09:57:00,25.3,17.3,30.37,ENE,67,3.1,-999.0,71,-99.99,,,0.00,Acu-Link.com,2013-01-18 14:57:00,
2013-01-18 10:12:00,25.5,15.8,30.38,West,270,0.0,-999.0,66,-99.99,,,0.00,Acu-Link.com,2013-01-18 15:12:00,
2013-01-18 10:27:00,26.1,13.7,30.38,WNW,292,7.4,-999.0,59,-99.99,,,0.00,Acu-Link.com,2013-01-18 15:27:00,
2013-01-18 10:42:00,26.1,12.9,30.39,WNW,292,2.7,-999.0,57,-99.99,,,0.00,Acu-Link.com,2013-01-18 15:42:00,
2013-01-18 10:57:00,26.2,13.1,30.38,West,270,3.1,-999.0,57,-99.99,,,0.00,Acu-Link.com,2013-01-18 15:57:00,
2013-01-18 11:12:00,26.1,12.5,30.38,West,270,3.1,-999.0,56,-99.99,,,0.00,Acu-Link.com,2013-01-18 16:12:00,
2013-01-18 11:28:00,26.6,13.4,30.37,SW,225,4.3,-999.0,57,-99.99,,,0.00,Acu-Link.com,2013-01-18 16:28:00,
2013-01-18 11:43:00,27.0,13.4,30.37,West,270,3.8,-999.0,56,-99.99,,,0.00,Acu-Link.com,2013-01-18 16:43:00,
2013-01-18 11:58:00,27.3,12.5,30.37,WSW,247,1.1,-999.0,53,-99.99,,,0.00,Acu-Link.com,2013-01-18 16:58:00,
2013-01-18 12:13:00,27.5,12.6,30.38,NNW,337,2.7,-999.0,53,-99.99,,,0.00,Acu-Link.com,2013-01-18 17:13:00,
2013-01-18 12:28:00,27.3,11.6,30.38,North,0,5.8,-999.0,51,-99.99,,,0.00,Acu-Link.com,2013-01-18 17:28:00,
2013-01-18 12:44:00,27.5,12.2,30.38,NW,315,3.8,-999.0,52,-99.99,,,0.00,Acu-Link.com,2013-01-18 17:44:00,
2013-01-18 12:59:00,27.5,12.6,30.37,West,270,5.1,-999.0,53,-99.99,,,0.00,Acu-Link.com,2013-01-18 17:59:00,
2013-01-18 13:14:00,27.5,12.2,30.36,SW,225,0.0,-999.0,52,-99.99,,,0.00,Acu-Link.com,2013-01-18 18:14:00,
2013-01-18 13:29:00,27.9,13.0,30.38,NNW,337,0.0,-999.0,53,-99.99,,,0.00,Acu-Link.com,2013-01-18 18:29:00,
2013-01-18 13:44:00,28.4,12.2,30.38,SSW,202,7.4,-999.0,50,-99.99,,,0.00,Acu-Link.com,2013-01-18 18:44:00,
2013-01-18 14:00:00,28.4,12.2,30.38,SSW,202,0.0,-999.0,50,-99.99,,,0.00,Acu-Link.com,2013-01-18 19:00:00,
2013-01-18 14:15:00,28.4,11.2,30.37,WSW,247,0.0,-999.0,48,-99.99,,,0.00,Acu-Link.com,2013-01-18 19:15:00,
2013-01-18 14:30:00,28.6,11.4,30.37,SW,225,0.0,-999.0,48,-99.99,,,0.00,Acu-Link.com,2013-01-18 19:30:00,
2013-01-18 14:45:00,28.6,10.9,30.38,South,180,0.0,-999.0,47,-99.99,,,0.00,Acu-Link.com,2013-01-18 19:45:00,
2013-01-18 15:00:00,28.2,10.6,30.39,South,180,1.6,-999.0,47,-99.99,,,0.00,Acu-Link.com,2013-01-18 20:00:00,
2013-01-18 15:16:00,28.6,12.8,30.39,WNW,292,0.0,-999.0,51,-99.99,,,0.00,Acu-Link.com,2013-01-18 20:16:00,
2013-01-18 15:31:00,28.6,11.9,30.39,NE,45,1.1,-999.0,49,-99.99,,,0.00,Acu-Link.com,2013-01-18 20:31:00,
2013-01-18 15:46:00,28.4,12.2,30.39,SSE,157,0.0,-999.0,50,-99.99,,,0.00,Acu-Link.com,2013-01-18 20:46:00,
2013-01-18 16:01:00,28.2,12.0,30.39,West,270,0.0,-999.0,50,-99.99,,,0.00,Acu-Link.com,2013-01-18 21:01:00,
2013-01-18 16:17:00,27.9,12.1,30.39,SSE,157,0.0,-999.0,51,-99.99,,,0.00,Acu-Link.com,2013-01-18 21:17:00,
2013-01-18 16:32:00,27.3,11.6,30.39,ENE,67,0.0,-999.0,51,-99.99,,,0.00,Acu-Link.com,2013-01-18 21:32:00,
2013-01-18 16:47:00,27.1,11.9,30.40,SW,225,0.0,-999.0,52,-99.99,,,0.00,Acu-Link.com,2013-01-18 21:47:00,
2013-01-18 17:02:00,27.1,12.7,30.40,West,270,0.0,-999.0,54,-99.99,,,0.00,Acu-Link.com,2013-01-18 22:02:00,
2013-01-18 17:17:00,26.6,13.0,30.41,WSW,247,0.0,-999.0,56,-99.99,,,0.00,Acu-Link.com,2013-01-18 22:17:00,
2013-01-18 17:33:00,25.7,13.4,30.42,SW,225,0.0,-999.0,59,-99.99,,,0.00,Acu-Link.com,2013-01-18 22:33:00,
2013-01-18 17:48:00,25.0,13.8,30.42,SSW,202,0.0,-999.0,62,-99.99,,,0.00,Acu-Link.com,2013-01-18 22:48:00,
2013-01-18 18:03:00,24.4,14.4,30.43,SSW,202,0.0,-999.0,65,-99.99,,,0.00,Acu-Link.com,2013-01-18 23:03:00,
2013-01-18 18:18:00,23.7,14.0,30.43,SSW,202,0.0,-999.0,66,-99.99,,,0.00,Acu-Link.com,2013-01-18 23:18:00,
2013-01-18 18:34:00,23.2,15.2,30.43,SSW,202,0.0,-999.0,71,-99.99,,,0.00,Acu-Link.com,2013-01-18 23:34:00,
2013-01-18 18:49:00,22.8,15.5,30.43,SSW,202,0.0,-999.0,73,-99.99,,,0.00,Acu-Link.com,2013-01-18 23:49:00,
2013-01-18 19:04:00,22.6,17.4,30.43,SSW,202,0.0,-999.0,80,-99.99,,,0.00,Acu-Link.com,2013-01-19 00:04:00,
2013-01-18 19:19:00,22.3,17.1,30.42,SSW,202,0.0,-999.0,80,-99.99,,,0.00,Acu-Link.com,2013-01-19 00:19:00,
2013-01-18 19:34:00,23.4,18.4,30.42,SSW,202,0.0,-999.0,81,-99.99,,,0.00,Acu-Link.com,2013-01-19 00:34:00,
2013-01-18 19:50:00,23.2,19.1,30.42,SSW,202,0.0,-999.0,84,-99.99,,,0.00,Acu-Link.com,2013-01-19 00:50:00,
2013-01-18 20:05:00,22.5,18.4,30.42,SSW,202,0.0,-999.0,84,-99.99,,,0.00,Acu-Link.com,2013-01-19 01:05:00,
2013-01-18 20:20:00,21.9,16.7,30.42,SSW,202,0.0,-999.0,80,-99.99,,,0.00,Acu-Link.com,2013-01-19 01:20:00,
2013-01-18 20:35:00,22.3,16.2,30.41,SW,225,0.0,-999.0,77,-99.99,,,0.00,Acu-Link.com,2013-01-19 01:35:00,
2013-01-18 20:50:00,23.0,16.3,30.41,SSW,202,0.0,-999.0,75,-99.99,,,0.00,Acu-Link.com,2013-01-19 01:50:00,
2013-01-18 21:06:00,23.7,17.3,30.41,SW,225,0.0,-999.0,76,-99.99,,,0.00,Acu-Link.com,2013-01-19 02:06:00,
2013-01-18 21:21:00,23.4,16.0,30.41,SW,225,0.0,-999.0,73,-99.99,,,0.00,Acu-Link.com,2013-01-19 02:21:00,
2013-01-18 21:36:00,24.1,17.3,30.42,SW,225,0.0,-999.0,75,-99.99,,,0.00,Acu-Link.com,2013-01-19 02:36:00,
2013-01-18 22:06:00,24.6,16.9,30.40,West,270,0.0,-999.0,72,-99.99,,,0.00,Acu-Link.com,2013-01-19 03:06:00,
2013-01-18 22:21:00,25.3,16.9,30.39,SW,225,0.0,-999.0,70,-99.99,,,0.00,Acu-Link.com,2013-01-19 03:21:00,
2013-01-18 22:37:00,25.7,17.0,30.39,WSW,247,0.0,-999.0,69,-99.99,,,0.00,Acu-Link.com,2013-01-19 03:37:00,
2013-01-18 22:52:00,26.1,17.3,30.38,East,90,0.0,-999.0,69,-99.99,,,0.00,Acu-Link.com,2013-01-19 03:52:00,
2013-01-18 23:07:00,26.4,17.7,30.38,SSW,202,0.0,-999.0,69,-99.99,,,0.00,Acu-Link.com,2013-01-19 04:07:00,
2013-01-18 23:22:00,27.0,17.8,30.38,NW,315,2.7,-999.0,68,-99.99,,,0.00,Acu-Link.com,2013-01-19 04:22:00,
2013-01-18 23:37:00,27.0,18.2,30.36,West,270,0.0,-999.0,69,-99.99,,,0.00,Acu-Link.com,2013-01-19 04:37:00,
2013-01-18 23:52:00,27.1,19.3,30.35,NW,315,0.0,-999.0,72,-99.99,,,0.00,Acu-Link.com,2013-01-19 04:52:00,